AIB274 EDHI-EDHI
Flight info
| Callsign | AIB274 |
|---|---|
| Flight time | 0h 8m |
| Altitude | 37000 |
| Route | IDEKO9E IDEKO N850 XAROL DCT SOGMI DCT BOMBI T104 XERUM DCT ETSI DCT ERNAS M726 LASGA T953 VOCIM T954 GOXLI DCT EDDP DCT PENEM Y236 RUDAK T278 KLF DCT EDDB DCT SUKIP M748 RARUP |
| Aircraft | A21N/M-SDE2E3FGHIRWXY/LB1 |
Departure
| Time | 2026-05-05 06:18 |
|---|---|
| Airport | Hamburg-Finkenwerder Airport (EDHI) |
Arrival
| Time | 2026-05-05 06:27 |
|---|---|
| Airport | Hamburg-Finkenwerder Airport (EDHI) |
| Time | Latitude | Longitude | Altitude | Speed | Heading |
|---|---|---|---|---|---|
| 2026-05-05 06:05 | 53.53132 | 9.83482 | 26 ft | 0 kts | 213° |
| 2026-05-05 06:10 | 53.53139 | 9.83489 | 23 ft | 4 kts | 219° |
| 2026-05-05 06:10 | 53.53153 | 9.83521 | 23 ft | 4 kts | 267° |
| 2026-05-05 06:11 | 53.53151 | 9.83549 | 23 ft | 0 kts | 294° |
| 2026-05-05 06:15 | 53.53152 | 9.83547 | 22 ft | 2 kts | 294° |
| 2026-05-05 06:16 | 53.53178 | 9.83476 | 22 ft | 12 kts | 322° |
| 2026-05-05 06:16 | 53.53191 | 9.83458 | 23 ft | 14 kts | 320° |
| 2026-05-05 06:16 | 53.53310 | 9.83409 | 22 ft | 24 kts | 356° |
| 2026-05-05 06:17 | 53.53491 | 9.83429 | 22 ft | 29 kts | 35° |
| 2026-05-05 06:17 | 53.53644 | 9.83721 | 21 ft | 35 kts | 51° |
| 2026-05-05 06:17 | 53.53737 | 9.83940 | 23 ft | 4 kts | 56° |
| 2026-05-05 06:17 | 53.53787 | 9.84043 | 23 ft | 53 kts | 52° |
| 2026-05-05 06:18 | 53.54255 | 9.85072 | 163 ft | 149 kts | 52° |
| 2026-05-05 06:18 | 53.54932 | 9.86602 | 1086 ft | 174 kts | 53° |
| 2026-05-05 06:18 | 53.55619 | 9.88141 | 2061 ft | 165 kts | 52° |
| 2026-05-05 06:18 | 53.56384 | 9.89774 | 2571 ft | 186 kts | 54° |
| 2026-05-05 06:19 | 53.56805 | 9.91870 | 2943 ft | 203 kts | 87° |
| 2026-05-05 06:19 | 53.56412 | 9.94159 | 2959 ft | 210 kts | 123° |
| 2026-05-05 06:19 | 53.55283 | 9.95641 | 2941 ft | 208 kts | 161° |
| 2026-05-05 06:19 | 53.53854 | 9.95706 | 2967 ft | 210 kts | 197° |
| 2026-05-05 06:20 | 53.52659 | 9.94360 | 2984 ft | 210 kts | 228° |
| 2026-05-05 06:20 | 53.51748 | 9.92437 | 2981 ft | 210 kts | 233° |
| 2026-05-05 06:20 | 53.50888 | 9.90449 | 2977 ft | 211 kts | 232° |
| 2026-05-05 06:20 | 53.49912 | 9.88616 | 2977 ft | 211 kts | 225° |
| 2026-05-05 06:21 | 53.48879 | 9.86869 | 2954 ft | 209 kts | 224° |
| 2026-05-05 06:21 | 53.47845 | 9.85140 | 2677 ft | 211 kts | 224° |
| 2026-05-05 06:21 | 53.46806 | 9.83396 | 2420 ft | 212 kts | 224° |
| 2026-05-05 06:21 | 53.45759 | 9.81631 | 2155 ft | 213 kts | 224° |
| 2026-05-05 06:22 | 53.44714 | 9.79887 | 2009 ft | 212 kts | 224° |
| 2026-05-05 06:22 | 53.43660 | 9.78138 | 1950 ft | 213 kts | 224° |
| 2026-05-05 06:22 | 53.42602 | 9.76393 | 1955 ft | 213 kts | 224° |
| 2026-05-05 06:22 | 53.41546 | 9.74650 | 1952 ft | 213 kts | 224° |
| 2026-05-05 06:23 | 53.40624 | 9.72718 | 1945 ft | 213 kts | 248° |
| 2026-05-05 06:23 | 53.40463 | 9.70308 | 1960 ft | 210 kts | 285° |
| 2026-05-05 06:23 | 53.41190 | 9.68156 | 1967 ft | 220 kts | 321° |
| 2026-05-05 06:23 | 53.42543 | 9.67051 | 1955 ft | 218 kts | 355° |
| 2026-05-05 06:24 | 53.44009 | 9.67432 | 1974 ft | 215 kts | 29° |
| 2026-05-05 06:24 | 53.45135 | 9.69063 | 1975 ft | 215 kts | 48° |
| 2026-05-05 06:24 | 53.46249 | 9.70695 | 1975 ft | 209 kts | 35° |
| 2026-05-05 06:24 | 53.47443 | 9.71985 | 1924 ft | 200 kts | 32° |
| 2026-05-05 06:25 | 53.48462 | 9.73326 | 1805 ft | 180 kts | 49° |
| 2026-05-05 06:25 | 53.49225 | 9.74920 | 1519 ft | 173 kts | 49° |
| 2026-05-05 06:25 | 53.50026 | 9.76367 | 1264 ft | 162 kts | 45° |
| 2026-05-05 06:25 | 53.50766 | 9.77650 | 1138 ft | 139 kts | 47° |
| 2026-05-05 06:26 | 53.51344 | 9.78894 | 651 ft | 137 kts | 55° |
| 2026-05-05 06:26 | 53.51910 | 9.80128 | 320 ft | 128 kts | 48° |
| 2026-05-05 06:26 | 53.52449 | 9.81267 | 116 ft | 126 kts | 48° |
| 2026-05-05 06:26 | 53.52980 | 9.82403 | 25 ft | 115 kts | 51° |
| 2026-05-05 06:27 | 53.53310 | 9.83098 | 22 ft | 22 kts | 63° |
| 2026-05-05 06:27 | 53.53201 | 9.83407 | 22 ft | 21 kts | 189° |
| 2026-05-05 06:27 | 53.53157 | 9.83368 | 23 ft | 0 kts | 210° |